createdAt,value
2023-03-31T00:00:17.150Z,2.65
2023-03-31T00:02:43.534Z,2.97
2023-03-31T00:05:11.185Z,2.90
2023-03-31T00:07:40.602Z,2.92
2023-03-31T00:10:17.276Z,2.95
2023-03-31T00:12:44.728Z,2.53
2023-03-31T00:15:14.441Z,2.92
2023-03-31T00:17:40.905Z,2.45
2023-03-31T00:20:12.398Z,2.88
2023-03-31T00:22:42.213Z,3.35
2023-03-31T00:25:10.498Z,2.85
2023-03-31T00:27:37.169Z,2.38
2023-03-31T00:30:03.763Z,2.42
2023-03-31T00:32:30.383Z,2.40
2023-03-31T00:34:56.801Z,2.25
2023-03-31T00:37:24.824Z,3.10
2023-03-31T00:39:53.946Z,2.40
2023-03-31T00:42:20.253Z,2.83
2023-03-31T00:45:05.704Z,2.40
2023-03-31T00:47:32.099Z,2.38
2023-03-31T00:49:58.719Z,2.67
2023-03-31T00:52:27.900Z,2.55
2023-03-31T00:54:56.832Z,2.38
2023-03-31T00:57:23.755Z,2.20
2023-03-31T00:59:52.073Z,2.63
2023-03-31T01:02:20.569Z,2.15
2023-03-31T01:04:50.928Z,2.33
2023-03-31T01:07:20.437Z,2.33
2023-03-31T01:09:47.750Z,2.67
2023-03-31T01:12:15.794Z,2.50
2023-03-31T01:14:42.168Z,2.15
2023-03-31T01:17:09.945Z,2.65
2023-03-31T01:20:07.061Z,2.55
2023-03-31T01:22:59.629Z,2.50
2023-03-31T01:25:42.709Z,2.72
2023-03-31T01:28:15.370Z,2.40
2023-03-31T01:30:41.830Z,2.83
2023-03-31T01:33:25.472Z,2.85
2023-03-31T01:35:58.081Z,3.03
2023-03-31T01:38:43.080Z,3.05
2023-03-31T01:41:18.784Z,2.85
2023-03-31T01:43:58.602Z,3.15
2023-03-31T01:46:28.817Z,3.08
2023-03-31T01:49:01.293Z,3.50
2023-03-31T01:51:47.366Z,3.28
2023-03-31T01:54:23.278Z,3.10
2023-03-31T01:56:55.823Z,3.22
2023-03-31T01:59:22.187Z,3.22
2023-03-31T02:01:56.325Z,3.13
2023-03-31T02:04:24.099Z,3.17
2023-03-31T02:07:02.303Z,3.38
2023-03-31T02:09:30.806Z,3.20
2023-03-31T02:11:58.190Z,3.10
2023-03-31T02:14:26.183Z,3.20
2023-03-31T02:16:58.530Z,2.70
2023-03-31T02:19:27.948Z,3.03
2023-03-31T02:21:54.920Z,2.50
2023-03-31T02:24:23.996Z,2.50
2023-03-31T02:27:03.349Z,3.30
2023-03-31T02:29:30.421Z,2.30
2023-03-31T02:32:01.297Z,2.85
2023-03-31T02:36:53.962Z,2.55
2023-03-31T02:39:23.572Z,2.65
2023-03-31T02:41:50.012Z,3.25
2023-03-31T02:44:16.931Z,3.00
2023-03-31T02:46:43.699Z,3.00
2023-03-31T02:49:11.480Z,2.97
2023-03-31T02:51:56.853Z,2.65
2023-03-31T02:54:32.300Z,2.80
2023-03-31T02:57:21.029Z,2.60
2023-03-31T03:00:09.614Z,2.40
2023-03-31T03:02:55.006Z,2.40
2023-03-31T03:05:40.129Z,1.90
2023-03-31T03:08:28.625Z,2.28
2023-03-31T03:11:17.871Z,2.25
2023-03-31T03:13:47.642Z,2.25
2023-03-31T03:16:28.652Z,2.28
2023-03-31T03:19:00.008Z,2.42
2023-03-31T03:21:26.780Z,1.75
2023-03-31T03:23:53.214Z,2.38
2023-03-31T03:26:23.668Z,2.17
2023-03-31T03:28:50.925Z,1.70
2023-03-31T03:31:17.472Z,2.35
2023-03-31T03:33:43.994Z,2.20
2023-03-31T03:36:10.540Z,2.10
2023-03-31T03:38:39.955Z,2.08
2023-03-31T03:41:06.467Z,3.75
2023-03-31T03:43:32.848Z,1.98
2023-03-31T03:45:59.367Z,2.60
2023-03-31T03:48:26.641Z,2.30
2023-03-31T03:50:54.245Z,2.17
2023-03-31T03:53:20.756Z,2.40
2023-03-31T03:55:49.884Z,2.03
2023-03-31T03:58:17.191Z,2.55
2023-03-31T04:00:45.283Z,1.92
2023-03-31T04:03:11.948Z,1.83
2023-03-31T04:05:38.572Z,1.83
2023-03-31T04:08:06.184Z,1.65
2023-03-31T04:10:32.628Z,1.70
2023-03-31T04:12:59.008Z,1.77
2023-03-31T04:15:25.337Z,1.42
2023-03-31T04:17:54.754Z,1.95
2023-03-31T04:20:21.520Z,1.67
2023-03-31T04:22:50.680Z,1.80
2023-03-31T04:25:17.460Z,1.48
2023-03-31T04:27:50.645Z,1.70
2023-03-31T04:30:22.898Z,2.00
2023-03-31T04:32:50.778Z,1.98
2023-03-31T04:35:18.216Z,1.85
2023-03-31T04:37:44.745Z,3.70
2023-03-31T04:40:11.798Z,2.85
2023-03-31T04:42:38.588Z,2.33
2023-03-31T04:47:45.736Z,2.75
2023-03-31T04:50:16.214Z,2.42
2023-03-31T04:52:43.400Z,3.25
2023-03-31T04:55:09.901Z,3.17
2023-03-31T04:57:37.201Z,3.17
2023-03-31T05:00:07.522Z,3.08
2023-03-31T05:02:34.067Z,3.20
2023-03-31T05:05:00.467Z,2.92
2023-03-31T05:07:27.258Z,3.00
2023-03-31T05:09:53.545Z,2.78
2023-03-31T05:12:19.895Z,3.45
2023-03-31T05:14:46.238Z,3.03
2023-03-31T05:17:12.545Z,2.92
2023-03-31T05:19:38.913Z,3.30
2023-03-31T05:22:06.083Z,3.80
2023-03-31T05:24:32.403Z,3.08
2023-03-31T05:26:58.811Z,3.58
2023-03-31T05:29:25.222Z,2.80
2023-03-31T05:31:53.387Z,2.70
2023-03-31T05:34:19.810Z,3.30
2023-03-31T05:36:48.017Z,3.53
2023-03-31T05:39:14.477Z,2.75
2023-03-31T05:41:40.962Z,2.63
2023-03-31T05:44:07.347Z,2.13
2023-03-31T05:46:33.707Z,2.95
2023-03-31T05:49:00.434Z,2.53
2023-03-31T05:51:26.730Z,2.10
2023-03-31T05:53:53.014Z,2.72
2023-03-31T05:56:19.287Z,2.05
2023-03-31T05:58:46.016Z,2.75
2023-03-31T06:01:14.773Z,2.65
2023-03-31T06:03:42.986Z,2.35
2023-03-31T06:06:09.853Z,2.20
2023-03-31T06:08:37.847Z,3.88
2023-03-31T06:11:09.068Z,1.90
2023-03-31T06:13:36.141Z,2.13
2023-03-31T06:16:02.769Z,2.10
2023-03-31T06:18:30.042Z,2.08
2023-03-31T06:20:56.751Z,2.10
2023-03-31T06:23:23.231Z,2.10
2023-03-31T06:25:51.787Z,1.30
2023-03-31T06:28:18.605Z,1.98
2023-03-31T06:30:44.918Z,1.60
2023-03-31T06:33:11.640Z,1.58
2023-03-31T06:35:38.839Z,1.83
2023-03-31T06:38:05.264Z,1.30
2023-03-31T06:40:31.540Z,1.90
2023-03-31T06:42:57.978Z,1.67
2023-03-31T06:45:24.294Z,1.20
2023-03-31T06:47:50.614Z,1.30
2023-03-31T06:50:17.008Z,1.80
2023-03-31T06:52:43.302Z,1.27
2023-03-31T06:55:09.771Z,0.93
2023-03-31T06:57:36.800Z,0.98
2023-03-31T07:00:04.310Z,1.00
2023-03-31T07:02:30.910Z,1.40
2023-03-31T07:04:57.437Z,1.00
2023-03-31T07:07:23.723Z,1.20
2023-03-31T07:09:50.161Z,1.20
2023-03-31T07:12:16.574Z,1.10
2023-03-31T07:14:42.959Z,1.27
2023-03-31T07:17:09.388Z,1.15
2023-03-31T07:19:37.838Z,1.30
2023-03-31T07:22:06.133Z,1.33
2023-03-31T07:24:32.565Z,1.50
2023-03-31T07:26:59.042Z,1.10
2023-03-31T07:29:25.784Z,1.27
2023-03-31T07:31:52.926Z,1.25
2023-03-31T07:34:19.303Z,1.40
2023-03-31T07:36:45.712Z,1.55
2023-03-31T07:39:12.035Z,1.35
2023-03-31T07:41:38.514Z,1.20
2023-03-31T07:44:04.857Z,1.30
2023-03-31T07:46:31.484Z,1.80
2023-03-31T07:48:58.717Z,1.00
2023-03-31T07:51:26.320Z,1.25
2023-03-31T07:53:53.011Z,1.40
2023-03-31T07:56:21.104Z,1.70
2023-03-31T07:58:47.618Z,1.30
2023-03-31T08:01:17.523Z,1.50
2023-03-31T08:03:44.876Z,1.43
2023-03-31T08:06:12.121Z,1.65
2023-03-31T08:08:43.058Z,1.55
2023-03-31T08:13:36.581Z,1.60
2023-03-31T08:16:03.618Z,2.05
2023-03-31T08:18:30.258Z,1.70
2023-03-31T08:20:56.601Z,1.90
2023-03-31T08:23:22.918Z,1.90
2023-03-31T08:25:49.353Z,1.88
2023-03-31T08:28:15.686Z,1.98
2023-03-31T08:30:42.202Z,2.13
2023-03-31T08:33:08.713Z,1.90
2023-03-31T08:35:35.536Z,2.25
2023-03-31T08:38:02.312Z,2.58
2023-03-31T08:40:30.021Z,2.40
2023-03-31T08:42:58.111Z,2.80
2023-03-31T08:45:26.370Z,3.05
2023-03-31T08:47:57.768Z,2.42
2023-03-31T08:50:27.086Z,2.95
2023-03-31T08:53:25.917Z,3.00
2023-03-31T08:55:53.556Z,2.95
2023-03-31T08:58:23.053Z,3.22
2023-03-31T09:00:54.278Z,2.60
2023-03-31T09:03:31.521Z,3.13
2023-03-31T09:06:02.224Z,3.00
2023-03-31T09:08:34.131Z,2.85
2023-03-31T09:11:14.433Z,3.05
2023-03-31T09:13:54.492Z,3.85
2023-03-31T09:16:24.455Z,2.50
2023-03-31T09:18:51.776Z,3.50
2023-03-31T09:21:18.063Z,3.15
2023-03-31T09:24:00.115Z,3.30
2023-03-31T09:26:26.661Z,3.25
2023-03-31T09:28:53.879Z,3.00
2023-03-31T09:31:20.725Z,2.67
2023-03-31T09:33:47.438Z,2.83
2023-03-31T09:36:15.976Z,2.92
2023-03-31T09:38:43.115Z,3.35
2023-03-31T09:41:09.640Z,2.85
2023-03-31T09:43:36.101Z,3.35
2023-03-31T09:46:09.576Z,3.40
2023-03-31T09:48:44.980Z,3.67
2023-03-31T09:51:17.632Z,2.63
2023-03-31T09:54:01.036Z,2.60
2023-03-31T09:56:34.845Z,2.63
2023-03-31T09:59:02.578Z,4.28
2023-03-31T10:01:29.499Z,3.10
2023-03-31T10:03:56.609Z,3.38
2023-03-31T10:06:23.427Z,2.35
2023-03-31T10:09:03.709Z,4.25
2023-03-31T10:11:30.018Z,3.28
2023-03-31T10:14:01.891Z,2.55
2023-03-31T10:16:42.897Z,1.98
2023-03-31T10:19:12.241Z,2.50
2023-03-31T10:21:39.027Z,2.42
2023-03-31T10:24:09.385Z,1.95
2023-03-31T10:26:35.974Z,2.10
2023-03-31T10:29:02.465Z,2.00
2023-03-31T10:31:36.528Z,2.10
2023-03-31T10:34:07.693Z,2.42
2023-03-31T10:36:35.070Z,2.33
2023-03-31T10:39:05.045Z,2.10
2023-03-31T10:41:31.345Z,2.08
2023-03-31T10:43:58.634Z,2.10
2023-03-31T10:46:42.231Z,2.30
2023-03-31T10:49:24.088Z,1.75
2023-03-31T10:51:55.029Z,2.03
2023-03-31T10:54:21.756Z,1.60
2023-03-31T10:56:52.753Z,2.03
2023-03-31T10:59:20.423Z,2.15
2023-03-31T11:01:57.710Z,1.75
2023-03-31T11:04:28.173Z,1.98
2023-03-31T11:07:05.273Z,2.00
2023-03-31T11:09:40.864Z,2.00
2023-03-31T11:12:19.828Z,1.95
2023-03-31T11:14:49.281Z,2.15
2023-03-31T11:17:21.743Z,1.90
2023-03-31T11:19:57.667Z,2.10
2023-03-31T11:22:43.827Z,2.17
2023-03-31T11:25:10.227Z,2.25
2023-03-31T11:27:36.744Z,1.67
2023-03-31T11:30:03.927Z,2.00
2023-03-31T11:32:36.596Z,1.52
2023-03-31T11:35:04.462Z,1.90
2023-03-31T11:37:56.872Z,2.15
2023-03-31T11:40:26.079Z,1.80
2023-03-31T11:43:15.748Z,2.20
2023-03-31T11:45:47.533Z,2.00
2023-03-31T11:48:22.297Z,1.85
2023-03-31T11:50:48.992Z,2.15
2023-03-31T11:53:17.654Z,1.98
2023-03-31T11:55:45.651Z,2.15
2023-03-31T11:58:17.117Z,2.10
2023-03-31T12:00:55.846Z,2.28
2023-03-31T12:03:33.444Z,2.00
2023-03-31T12:06:20.092Z,2.40
2023-03-31T12:08:47.245Z,2.25
2023-03-31T12:11:16.662Z,2.60
2023-03-31T12:13:49.024Z,2.55
2023-03-31T12:16:35.845Z,1.80
2023-03-31T12:19:17.993Z,2.08
2023-03-31T12:21:48.068Z,1.92
2023-03-31T12:24:14.592Z,2.63
2023-03-31T12:26:45.643Z,2.15
2023-03-31T12:29:23.123Z,2.17
2023-03-31T12:31:51.280Z,1.50
2023-03-31T12:34:19.978Z,2.22
2023-03-31T12:36:54.857Z,1.60
2023-03-31T12:39:42.880Z,2.03
2023-03-31T12:42:25.186Z,2.50
2023-03-31T12:44:57.728Z,2.45
2023-03-31T12:47:27.887Z,2.45
2023-03-31T12:50:03.355Z,2.42
2023-03-31T12:52:32.899Z,2.47
2023-03-31T12:54:59.260Z,3.00
2023-03-31T12:57:26.672Z,1.85
2023-03-31T13:00:12.490Z,2.65
2023-03-31T13:02:39.629Z,2.10
2023-03-31T13:05:24.664Z,1.65
2023-03-31T13:07:53.430Z,2.35
2023-03-31T13:10:28.062Z,1.95
2023-03-31T13:13:14.750Z,2.13
2023-03-31T13:15:51.123Z,2.35
2023-03-31T13:18:21.194Z,2.58
2023-03-31T13:20:59.683Z,1.83
2023-03-31T13:23:27.613Z,2.40
2023-03-31T13:25:57.657Z,1.95
2023-03-31T13:28:42.665Z,2.10
2023-03-31T13:31:10.750Z,2.30
2023-03-31T13:33:40.715Z,2.03
2023-03-31T13:36:27.125Z,2.13
2023-03-31T13:39:15.475Z,2.10
2023-03-31T13:41:43.758Z,1.90
2023-03-31T13:44:12.896Z,1.92
2023-03-31T13:46:58.084Z,1.95
2023-03-31T13:49:37.524Z,9.20
2023-03-31T13:52:05.335Z,12.48
2023-03-31T13:54:31.654Z,4.15
2023-03-31T13:57:17.014Z,17.60
2023-03-31T14:00:01.544Z,12.27
2023-03-31T14:02:40.630Z,13.43
2023-03-31T14:05:20.685Z,3.63
2023-03-31T14:07:49.777Z,3.70
2023-03-31T14:10:27.572Z,10.32
2023-03-31T14:13:04.473Z,4.00
2023-03-31T14:15:31.228Z,2.85
2023-03-31T14:17:58.036Z,7.43
2023-03-31T14:20:50.745Z,7.93
2023-03-31T14:23:17.106Z,5.22
2023-03-31T14:26:03.622Z,6.20
2023-03-31T14:28:35.373Z,6.68
2023-03-31T14:31:02.883Z,9.80
2023-03-31T14:33:38.485Z,10.50
2023-03-31T14:36:04.855Z,5.10
2023-03-31T14:38:32.140Z,17.20
2023-03-31T14:41:01.234Z,9.82
2023-03-31T14:43:29.013Z,7.15
2023-03-31T14:45:59.086Z,5.75
2023-03-31T14:48:27.728Z,9.65
2023-03-31T14:50:57.268Z,3.72
2023-03-31T14:53:26.015Z,5.63
2023-03-31T14:55:59.000Z,4.15
2023-03-31T14:58:31.799Z,6.00
2023-03-31T15:00:58.568Z,2.72
2023-03-31T15:03:25.785Z,8.77
2023-03-31T15:05:56.235Z,5.20
2023-03-31T15:08:23.322Z,3.00
2023-03-31T15:10:54.016Z,5.07
2023-03-31T15:13:28.051Z,8.98
2023-03-31T15:15:54.338Z,9.98
2023-03-31T15:18:20.852Z,4.85
2023-03-31T15:20:47.132Z,6.60
2023-03-31T15:23:27.606Z,13.63
2023-03-31T15:25:57.609Z,9.35
2023-03-31T15:28:25.278Z,8.70
2023-03-31T15:30:56.936Z,10.85
2023-03-31T15:33:36.571Z,5.88
2023-03-31T15:36:03.605Z,5.13
2023-03-31T15:38:31.930Z,3.65
2023-03-31T15:40:58.820Z,4.10
2023-03-31T15:43:32.815Z,4.13
2023-03-31T15:46:00.478Z,2.55
2023-03-31T15:48:34.294Z,2.85
2023-03-31T15:51:01.667Z,3.25
2023-03-31T15:53:30.722Z,2.78
2023-03-31T15:55:59.787Z,2.30
2023-03-31T15:58:45.788Z,2.45
2023-03-31T16:01:15.523Z,2.80
2023-03-31T16:03:42.087Z,2.88
2023-03-31T16:06:24.878Z,2.10
2023-03-31T16:08:57.788Z,2.10
2023-03-31T16:11:28.213Z,1.73
2023-03-31T16:13:57.579Z,1.40
2023-03-31T16:16:25.369Z,2.50
2023-03-31T16:18:55.885Z,2.22
2023-03-31T16:21:24.789Z,2.22
2023-03-31T16:23:53.843Z,1.83
2023-03-31T16:26:22.325Z,2.28
2023-03-31T16:28:52.831Z,1.90
2023-03-31T16:31:35.638Z,1.70
2023-03-31T16:34:03.682Z,1.50
2023-03-31T16:36:29.974Z,1.60
2023-03-31T16:38:57.917Z,1.60
2023-03-31T16:41:25.274Z,1.77
2023-03-31T16:43:52.572Z,1.60
2023-03-31T16:46:19.101Z,1.70
2023-03-31T16:48:45.492Z,1.70
2023-03-31T16:51:11.937Z,1.42
2023-03-31T16:53:38.938Z,1.50
2023-03-31T16:56:08.095Z,1.85
2023-03-31T16:58:35.874Z,1.67
2023-03-31T17:01:02.222Z,1.95
2023-03-31T17:03:28.789Z,2.10
2023-03-31T17:05:59.060Z,1.70
2023-03-31T17:08:27.905Z,2.20
2023-03-31T17:11:05.455Z,1.80
2023-03-31T17:13:32.464Z,2.30
2023-03-31T17:16:13.441Z,1.95
2023-03-31T17:18:45.368Z,2.15
2023-03-31T17:21:13.502Z,1.80
2023-03-31T17:23:40.368Z,2.17
2023-03-31T17:26:07.208Z,1.90
2023-03-31T17:28:33.817Z,1.95
2023-03-31T17:31:00.115Z,2.50
2023-03-31T17:33:27.846Z,2.20
2023-03-31T17:35:58.320Z,3.42
2023-03-31T17:38:25.537Z,2.22
2023-03-31T17:40:51.840Z,2.60
2023-03-31T17:43:18.079Z,2.30
2023-03-31T17:45:44.363Z,2.55
2023-03-31T17:48:10.797Z,2.80
2023-03-31T17:50:38.166Z,2.42
2023-03-31T17:53:08.870Z,2.83
2023-03-31T17:55:38.525Z,2.80
2023-03-31T17:58:06.321Z,2.60
2023-03-31T18:00:32.665Z,2.67
2023-03-31T18:02:59.193Z,2.28
2023-03-31T18:05:26.010Z,3.22
2023-03-31T18:07:53.513Z,2.42
2023-03-31T18:10:19.796Z,2.65
2023-03-31T18:12:46.630Z,2.50
2023-03-31T18:15:13.126Z,2.70
2023-03-31T18:17:39.553Z,3.25
2023-03-31T18:20:06.142Z,2.55
2023-03-31T18:22:32.611Z,2.70
2023-03-31T18:24:58.973Z,2.33
2023-03-31T18:27:25.440Z,3.17
2023-03-31T18:29:52.059Z,3.17
2023-03-31T18:32:18.770Z,3.13
2023-03-31T18:34:45.294Z,2.97
2023-03-31T18:37:24.107Z,3.30
2023-03-31T18:39:50.498Z,3.15
2023-03-31T18:42:18.451Z,3.70
2023-03-31T18:44:44.823Z,3.60
2023-03-31T18:47:11.970Z,4.28
2023-03-31T18:49:41.438Z,3.13
2023-03-31T18:52:07.785Z,3.97
2023-03-31T18:54:34.187Z,3.60
2023-03-31T18:57:01.799Z,4.38
2023-03-31T18:59:28.294Z,4.32
2023-03-31T19:01:54.764Z,3.50
2023-03-31T19:04:21.114Z,3.85
2023-03-31T19:06:47.388Z,3.45
2023-03-31T19:09:13.764Z,3.53
2023-03-31T19:11:40.036Z,3.90
2023-03-31T19:14:06.790Z,3.97
2023-03-31T19:16:36.263Z,3.65
2023-03-31T19:19:03.865Z,4.43
2023-03-31T19:21:32.512Z,3.90
2023-03-31T19:23:58.851Z,7.35
2023-03-31T19:26:28.303Z,4.93
2023-03-31T19:28:55.377Z,4.38
2023-03-31T19:31:21.833Z,4.72
2023-03-31T19:33:48.253Z,3.95
2023-03-31T19:36:14.607Z,4.47
2023-03-31T19:38:40.998Z,5.18
2023-03-31T19:41:07.612Z,5.40
2023-03-31T19:43:34.081Z,5.65
2023-03-31T19:46:00.829Z,4.93
2023-03-31T19:48:31.260Z,5.25
2023-03-31T19:50:59.931Z,4.60
2023-03-31T19:53:26.452Z,5.40
2023-03-31T19:55:56.220Z,4.78
2023-03-31T19:58:26.260Z,8.57
2023-03-31T20:00:54.622Z,4.32
2023-03-31T20:03:21.216Z,4.65
2023-03-31T20:05:48.113Z,4.70
2023-03-31T20:08:14.464Z,4.80
2023-03-31T20:10:41.323Z,4.90
2023-03-31T20:13:08.474Z,4.68
2023-03-31T20:15:34.838Z,4.78
2023-03-31T20:18:01.237Z,4.13
2023-03-31T20:20:27.614Z,5.90
2023-03-31T20:22:54.473Z,5.00
2023-03-31T20:25:21.001Z,5.43
2023-03-31T20:27:47.318Z,5.25
2023-03-31T20:30:13.700Z,4.75
2023-03-31T20:32:40.022Z,6.00
2023-03-31T20:35:09.456Z,5.78
2023-03-31T20:37:35.843Z,5.45
2023-03-31T20:40:02.181Z,5.32
2023-03-31T20:42:31.714Z,5.97
2023-03-31T20:44:58.132Z,5.85
2023-03-31T20:47:24.716Z,6.53
2023-03-31T20:49:51.280Z,6.03
2023-03-31T20:52:17.587Z,5.45
2023-03-31T20:54:43.998Z,5.72
2023-03-31T20:57:11.646Z,6.50
2023-03-31T20:59:38.288Z,5.97
2023-03-31T21:02:14.223Z,4.97
2023-03-31T21:04:40.607Z,4.57
2023-03-31T21:07:06.908Z,4.63
2023-03-31T21:09:34.112Z,3.90
2023-03-31T21:12:01.354Z,4.63
2023-03-31T21:14:27.701Z,4.82
2023-03-31T21:16:54.030Z,4.70
2023-03-31T21:19:20.399Z,4.60
2023-03-31T21:21:46.714Z,5.47
2023-03-31T21:24:13.460Z,4.15
2023-03-31T21:26:40.398Z,5.10
2023-03-31T21:29:06.786Z,5.03
2023-03-31T21:31:33.205Z,4.60
2023-03-31T21:34:01.278Z,4.25
2023-03-31T21:36:27.763Z,4.15
2023-03-31T21:38:54.226Z,5.00
2023-03-31T21:41:22.777Z,4.88
2023-03-31T21:43:49.872Z,4.93
2023-03-31T21:46:21.440Z,5.10
2023-03-31T21:48:48.971Z,5.00
2023-03-31T21:51:16.024Z,5.55
2023-03-31T21:53:43.949Z,6.00
2023-03-31T21:56:10.282Z,5.25
2023-03-31T21:58:36.789Z,5.90
2023-03-31T22:01:03.967Z,4.88
2023-03-31T22:03:32.137Z,5.68
2023-03-31T22:05:58.932Z,4.82
2023-03-31T22:08:26.890Z,5.90
2023-03-31T22:10:54.637Z,5.90
2023-03-31T22:13:21.368Z,5.38
2023-03-31T22:15:47.730Z,5.60
2023-03-31T22:18:14.406Z,4.72
2023-03-31T22:20:40.945Z,5.55
2023-03-31T22:23:07.526Z,5.38
2023-03-31T22:25:34.028Z,6.50
2023-03-31T22:28:00.745Z,5.28
2023-03-31T22:30:27.374Z,5.70
2023-03-31T22:32:54.950Z,5.97
2023-03-31T22:35:21.619Z,5.13
2023-03-31T22:37:47.895Z,6.28
2023-03-31T22:40:14.173Z,5.35
2023-03-31T22:42:40.487Z,5.00
2023-03-31T22:45:07.080Z,5.25
2023-03-31T22:47:33.532Z,5.35
2023-03-31T22:49:59.969Z,5.40
2023-03-31T22:52:26.361Z,5.60
2023-03-31T22:54:52.695Z,5.43
2023-03-31T22:57:19.190Z,5.38
2023-03-31T22:59:45.617Z,4.65
2023-03-31T23:02:12.061Z,5.28
2023-03-31T23:04:41.164Z,5.28
2023-03-31T23:07:07.514Z,4.95
2023-03-31T23:09:33.855Z,4.95
2023-03-31T23:12:00.485Z,4.63
2023-03-31T23:14:26.998Z,4.32
2023-03-31T23:16:53.698Z,4.47
2023-03-31T23:19:20.074Z,4.45
2023-03-31T23:21:46.458Z,5.32
2023-03-31T23:24:12.777Z,5.07
2023-03-31T23:26:39.176Z,5.80
2023-03-31T23:29:06.012Z,5.95
2023-03-31T23:31:32.782Z,5.82
2023-03-31T23:33:59.615Z,6.53
2023-03-31T23:36:26.236Z,5.82
2023-03-31T23:38:53.959Z,6.40
2023-03-31T23:41:20.736Z,6.60
2023-03-31T23:43:47.058Z,5.72
2023-03-31T23:46:13.465Z,6.82
2023-03-31T23:48:40.044Z,7.07
2023-03-31T23:51:07.508Z,7.30
2023-03-31T23:53:34.342Z,7.70
2023-03-31T23:56:03.541Z,8.35
2023-03-31T23:58:30.411Z,8.23
